sensor_id;sensor_type;location;lat;lon;timestamp;pressure;altitude;pressure_sealevel;temperature;humidity
76794;BME280;65745;50.278;18.192;2023-04-24T00:02:05;98760.27;;;12.22;71.76
76794;BME280;65745;50.278;18.192;2023-04-24T00:04:42;98757.66;;;12.24;71.94
76794;BME280;65745;50.278;18.192;2023-04-24T00:07:15;98756.27;;;12.27;71.65
76794;BME280;65745;50.278;18.192;2023-04-24T00:09:48;98751.27;;;12.26;72.24
76794;BME280;65745;50.278;18.192;2023-04-24T00:12:20;98752.80;;;12.28;71.64
76794;BME280;65745;50.278;18.192;2023-04-24T00:14:52;98749.34;;;12.29;71.85
76794;BME280;65745;50.278;18.192;2023-04-24T00:17:24;98748.83;;;12.28;71.58
76794;BME280;65745;50.278;18.192;2023-04-24T00:19:56;98745.20;;;12.32;71.28
76794;BME280;65745;50.278;18.192;2023-04-24T00:22:30;98741.92;;;12.31;71.20
76794;BME280;65745;50.278;18.192;2023-04-24T00:25:02;98741.40;;;12.30;71.44
76794;BME280;65745;50.278;18.192;2023-04-24T00:27:35;98736.74;;;12.29;71.66
76794;BME280;65745;50.278;18.192;2023-04-24T00:30:09;98734.36;;;12.24;72.03
76794;BME280;65745;50.278;18.192;2023-04-24T00:32:42;98734.70;;;12.25;71.74
76794;BME280;65745;50.278;18.192;2023-04-24T00:35:14;98730.55;;;12.25;71.61
76794;BME280;65745;50.278;18.192;2023-04-24T00:37:46;98728.31;;;12.25;71.63
76794;BME280;65745;50.278;18.192;2023-04-24T00:40:19;98725.38;;;12.27;71.82
76794;BME280;65745;50.278;18.192;2023-04-24T00:42:51;98722.78;;;12.27;71.40
76794;BME280;65745;50.278;18.192;2023-04-24T00:45:24;98715.73;;;12.23;71.74
76794;BME280;65745;50.278;18.192;2023-04-24T00:47:57;98713.33;;;12.21;71.64
76794;BME280;65745;50.278;18.192;2023-04-24T00:50:29;98712.11;;;12.22;71.40
76794;BME280;65745;50.278;18.192;2023-04-24T00:53:02;98710.36;;;12.25;71.52
76794;BME280;65745;50.278;18.192;2023-04-24T00:55:34;98704.83;;;12.25;71.78
76794;BME280;65745;50.278;18.192;2023-04-24T00:58:07;98701.52;;;12.30;71.93
76794;BME280;65745;50.278;18.192;2023-04-24T01:00:40;98701.17;;;12.32;71.98
76794;BME280;65745;50.278;18.192;2023-04-24T01:03:12;98702.35;;;12.36;71.94
76794;BME280;65745;50.278;18.192;2023-04-24T01:05:45;98701.84;;;12.33;71.86
76794;BME280;65745;50.278;18.192;2023-04-24T01:08:18;98701.16;;;12.32;71.86
76794;BME280;65745;50.278;18.192;2023-04-24T01:10:51;98698.59;;;12.27;71.64
76794;BME280;65745;50.278;18.192;2023-04-24T01:13:23;98697.06;;;12.26;70.99
76794;BME280;65745;50.278;18.192;2023-04-24T01:15:55;98698.45;;;12.27;70.70
76794;BME280;65745;50.278;18.192;2023-04-24T01:18:28;98698.41;;;12.28;70.70
76794;BME280;65745;50.278;18.192;2023-04-24T01:21:01;98701.55;;;12.24;70.48
76794;BME280;65745;50.278;18.192;2023-04-24T01:23:35;98704.17;;;12.19;70.63
76794;BME280;65745;50.278;18.192;2023-04-24T01:26:07;98699.37;;;12.17;70.64
76794;BME280;65745;50.278;18.192;2023-04-24T01:28:39;98696.61;;;12.14;71.34
76794;BME280;65745;50.278;18.192;2023-04-24T01:31:11;98696.27;;;12.13;71.30
76794;BME280;65745;50.278;18.192;2023-04-24T01:33:44;98692.48;;;12.11;71.50
76794;BME280;65745;50.278;18.192;2023-04-24T01:36:17;98690.42;;;12.09;71.58
76794;BME280;65745;50.278;18.192;2023-04-24T01:38:50;98690.57;;;12.14;71.63
76794;BME280;65745;50.278;18.192;2023-04-24T01:41:23;98689.36;;;12.15;71.73
76794;BME280;65745;50.278;18.192;2023-04-24T01:43:55;98689.32;;;12.22;71.07
76794;BME280;65745;50.278;18.192;2023-04-24T01:46:28;98692.77;;;12.22;71.88
76794;BME280;65745;50.278;18.192;2023-04-24T01:49:03;98687.25;;;12.21;71.11
76794;BME280;65745;50.278;18.192;2023-04-24T01:51:35;98691.38;;;12.22;70.80
76794;BME280;65745;50.278;18.192;2023-04-24T01:54:07;98695.40;;;12.14;71.79
76794;BME280;65745;50.278;18.192;2023-04-24T01:56:42;98694.45;;;12.01;73.58
76794;BME280;65745;50.278;18.192;2023-04-24T01:59:14;98693.34;;;11.79;74.46
76794;BME280;65745;50.278;18.192;2023-04-24T02:01:47;98689.50;;;11.86;73.40
76794;BME280;65745;50.278;18.192;2023-04-24T02:04:22;98686.90;;;11.91;73.57
76794;BME280;65745;50.278;18.192;2023-04-24T02:06:54;98681.02;;;11.95;73.69
76794;BME280;65745;50.278;18.192;2023-04-24T02:09:28;98682.56;;;11.97;74.04
76794;BME280;65745;50.278;18.192;2023-04-24T02:12:00;98682.36;;;12.01;73.02
76794;BME280;65745;50.278;18.192;2023-04-24T02:14:32;98683.48;;;12.16;72.48
76794;BME280;65745;50.278;18.192;2023-04-24T02:17:04;98682.73;;;12.25;71.71
76794;BME280;65745;50.278;18.192;2023-04-24T02:19:40;98676.19;;;12.22;71.80
76794;BME280;65745;50.278;18.192;2023-04-24T02:22:13;98677.38;;;12.24;71.81
76794;BME280;65745;50.278;18.192;2023-04-24T02:24:46;98674.13;;;12.22;71.97
76794;BME280;65745;50.278;18.192;2023-04-24T02:27:18;98669.46;;;12.22;72.12
76794;BME280;65745;50.278;18.192;2023-04-24T02:29:50;98665.85;;;12.21;72.20
76794;BME280;65745;50.278;18.192;2023-04-24T02:32:22;98665.80;;;12.27;72.23
76794;BME280;65745;50.278;18.192;2023-04-24T02:34:54;98661.48;;;12.28;72.04
76794;BME280;65745;50.278;18.192;2023-04-24T02:37:27;98654.38;;;12.31;71.74
76794;BME280;65745;50.278;18.192;2023-04-24T02:39:59;98653.65;;;12.35;70.89
76794;BME280;65745;50.278;18.192;2023-04-24T02:42:31;98653.95;;;12.42;70.68
76794;BME280;65745;50.278;18.192;2023-04-24T02:45:04;98651.36;;;12.43;70.46
76794;BME280;65745;50.278;18.192;2023-04-24T02:47:36;98651.73;;;12.39;70.43
76794;BME280;65745;50.278;18.192;2023-04-24T02:50:10;98648.70;;;12.28;70.76
76794;BME280;65745;50.278;18.192;2023-04-24T02:52:42;98649.76;;;12.25;70.58
76794;BME280;65745;50.278;18.192;2023-04-24T02:55:14;98651.69;;;12.22;70.15
76794;BME280;65745;50.278;18.192;2023-04-24T02:57:47;98650.84;;;12.19;70.17
76794;BME280;65745;50.278;18.192;2023-04-24T03:00:19;98650.37;;;12.12;70.33
76794;BME280;65745;50.278;18.192;2023-04-24T03:02:51;98644.69;;;12.07;70.35
76794;BME280;65745;50.278;18.192;2023-04-24T03:05:24;98645.39;;;12.07;70.38
76794;BME280;65745;50.278;18.192;2023-04-24T03:07:56;98643.27;;;12.13;70.56
76794;BME280;65745;50.278;18.192;2023-04-24T03:10:28;98638.94;;;12.17;70.13
76794;BME280;65745;50.278;18.192;2023-04-24T03:13:00;98641.67;;;12.19;69.34
76794;BME280;65745;50.278;18.192;2023-04-24T03:15:32;98639.96;;;12.18;69.17
76794;BME280;65745;50.278;18.192;2023-04-24T03:18:04;98645.36;;;12.14;68.45
76794;BME280;65745;50.278;18.192;2023-04-24T03:20:36;98640.38;;;12.10;68.19
76794;BME280;65745;50.278;18.192;2023-04-24T03:23:08;98639.85;;;12.08;68.11
76794;BME280;65745;50.278;18.192;2023-04-24T03:25:41;98643.16;;;12.04;68.26
76794;BME280;65745;50.278;18.192;2023-04-24T03:28:14;98639.23;;;12.01;68.73
76794;BME280;65745;50.278;18.192;2023-04-24T03:30:50;98637.13;;;12.02;68.25
76794;BME280;65745;50.278;18.192;2023-04-24T03:33:23;98637.12;;;12.03;68.09
76794;BME280;65745;50.278;18.192;2023-04-24T03:36:02;98638.52;;;12.02;68.19
76794;BME280;65745;50.278;18.192;2023-04-24T03:38:43;98634.41;;;11.97;68.13
76794;BME280;65745;50.278;18.192;2023-04-24T03:41:23;98637.70;;;11.94;68.66
76794;BME280;65745;50.278;18.192;2023-04-24T03:43:59;98632.21;;;11.89;68.83
76794;BME280;65745;50.278;18.192;2023-04-24T03:46:32;98632.56;;;11.91;68.67
76794;BME280;65745;50.278;18.192;2023-04-24T03:49:04;98629.97;;;11.87;69.25
76794;BME280;65745;50.278;18.192;2023-04-24T03:51:39;98631.02;;;11.87;69.60
76794;BME280;65745;50.278;18.192;2023-04-24T03:54:20;98633.11;;;11.85;70.06
76794;BME280;65745;50.278;18.192;2023-04-24T03:56:53;98630.52;;;11.83;70.26
76794;BME280;65745;50.278;18.192;2023-04-24T03:59:25;98631.53;;;11.86;70.46
76794;BME280;65745;50.278;18.192;2023-04-24T04:02:24;98634.48;;;11.86;70.51
76794;BME280;65745;50.278;18.192;2023-04-24T04:04:56;98635.31;;;11.90;70.22
76794;BME280;65745;50.278;18.192;2023-04-24T04:07:29;98636.36;;;11.87;70.61
76794;BME280;65745;50.278;18.192;2023-04-24T04:10:02;98635.68;;;11.86;70.28
76794;BME280;65745;50.278;18.192;2023-04-24T04:12:34;98634.81;;;11.86;69.96
76794;BME280;65745;50.278;18.192;2023-04-24T04:15:07;98634.33;;;11.84;69.98
76794;BME280;65745;50.278;18.192;2023-04-24T04:17:40;98639.49;;;11.85;69.99
76794;BME280;65745;50.278;18.192;2023-04-24T04:20:12;98640.02;;;11.80;70.61
76794;BME280;65745;50.278;18.192;2023-04-24T04:22:44;98642.44;;;11.79;70.36
76794;BME280;65745;50.278;18.192;2023-04-24T04:25:20;98641.20;;;11.85;69.86
76794;BME280;65745;50.278;18.192;2023-04-24T04:27:54;98641.36;;;11.87;69.62
76794;BME280;65745;50.278;18.192;2023-04-24T04:30:27;98639.33;;;11.82;69.46
76794;BME280;65745;50.278;18.192;2023-04-24T04:33:03;98640.21;;;11.79;69.42
76794;BME280;65745;50.278;18.192;2023-04-24T04:35:36;98640.52;;;11.82;69.47
76794;BME280;65745;50.278;18.192;2023-04-24T04:38:08;98638.45;;;11.82;68.90
76794;BME280;65745;50.278;18.192;2023-04-24T04:40:57;98639.48;;;11.83;68.71
76794;BME280;65745;50.278;18.192;2023-04-24T04:43:31;98638.63;;;11.84;68.99
76794;BME280;65745;50.278;18.192;2023-04-24T04:46:03;98635.83;;;11.91;68.75
76794;BME280;65745;50.278;18.192;2023-04-24T04:48:55;98634.08;;;11.96;68.65
76794;BME280;65745;50.278;18.192;2023-04-24T04:51:28;98635.77;;;11.99;68.32
76794;BME280;65745;50.278;18.192;2023-04-24T04:54:01;98636.30;;;12.01;68.21
76794;BME280;65745;50.278;18.192;2023-04-24T04:56:33;98637.84;;;12.01;68.34
76794;BME280;65745;50.278;18.192;2023-04-24T04:59:06;98636.98;;;12.02;68.12
76794;BME280;65745;50.278;18.192;2023-04-24T05:01:39;98634.20;;;12.02;68.11
76794;BME280;65745;50.278;18.192;2023-04-24T05:04:12;98633.65;;;12.08;68.54
76794;BME280;65745;50.278;18.192;2023-04-24T05:06:44;98635.64;;;12.20;68.27
76794;BME280;65745;50.278;18.192;2023-04-24T05:09:18;98632.45;;;12.31;67.87
76794;BME280;65745;50.278;18.192;2023-04-24T05:11:54;98639.10;;;12.41;67.49
76794;BME280;65745;50.278;18.192;2023-04-24T05:14:27;98638.55;;;12.45;67.17
76794;BME280;65745;50.278;18.192;2023-04-24T05:16:59;98637.17;;;12.47;67.40
76794;BME280;65745;50.278;18.192;2023-04-24T05:19:33;98639.02;;;12.49;67.28
76794;BME280;65745;50.278;18.192;2023-04-24T05:22:07;98638.20;;;12.48;67.48
76794;BME280;65745;50.278;18.192;2023-04-24T05:24:45;98635.45;;;12.45;67.60
76794;BME280;65745;50.278;18.192;2023-04-24T05:27:27;98637.54;;;12.43;67.94
76794;BME280;65745;50.278;18.192;2023-04-24T05:30:00;98637.04;;;12.40;68.07
76794;BME280;65745;50.278;18.192;2023-04-24T05:32:33;98637.55;;;12.41;67.93
76794;BME280;65745;50.278;18.192;2023-04-24T05:35:06;98640.98;;;12.44;68.58
76794;BME280;65745;50.278;18.192;2023-04-24T05:37:39;98644.27;;;12.43;69.30
76794;BME280;65745;50.278;18.192;2023-04-24T05:40:12;98645.24;;;12.50;68.83
76794;BME280;65745;50.278;18.192;2023-04-24T05:42:45;98648.38;;;12.69;68.73
76794;BME280;65745;50.278;18.192;2023-04-24T05:45:18;98648.59;;;12.83;68.26
76794;BME280;65745;50.278;18.192;2023-04-24T05:47:50;98647.75;;;12.98;67.96
76794;BME280;65745;50.278;18.192;2023-04-24T05:50:23;98649.77;;;13.03;67.17
76794;BME280;65745;50.278;18.192;2023-04-24T05:52:56;98648.34;;;13.08;66.87
76794;BME280;65745;50.278;18.192;2023-04-24T05:55:33;98649.54;;;13.11;67.00
76794;BME280;65745;50.278;18.192;2023-04-24T05:58:06;98647.77;;;13.15;66.77
76794;BME280;65745;50.278;18.192;2023-04-24T06:00:38;98651.21;;;13.17;67.16
76794;BME280;65745;50.278;18.192;2023-04-24T06:03:13;98642.45;;;13.27;67.06
76794;BME280;65745;50.278;18.192;2023-04-24T06:05:46;98645.27;;;13.39;66.76
76794;BME280;65745;50.278;18.192;2023-04-24T06:08:18;98645.70;;;13.46;66.63
76794;BME280;65745;50.278;18.192;2023-04-24T06:10:50;98641.32;;;13.50;66.77
76794;BME280;65745;50.278;18.192;2023-04-24T06:13:23;98641.58;;;13.58;66.72
76794;BME280;65745;50.278;18.192;2023-04-24T06:16:15;98644.13;;;13.61;66.52
76794;BME280;65745;50.278;18.192;2023-04-24T06:18:50;98641.80;;;13.68;66.03
76794;BME280;65745;50.278;18.192;2023-04-24T06:21:23;98640.20;;;13.71;65.73
76794;BME280;65745;50.278;18.192;2023-04-24T06:23:56;98638.55;;;13.78;66.00
76794;BME280;65745;50.278;18.192;2023-04-24T06:26:29;98637.78;;;13.84;66.01
76794;BME280;65745;50.278;18.192;2023-04-24T06:29:01;98636.63;;;13.92;65.97
76794;BME280;65745;50.278;18.192;2023-04-24T06:31:33;98638.73;;;14.02;65.81
76794;BME280;65745;50.278;18.192;2023-04-24T06:34:07;98638.52;;;14.17;65.89
76794;BME280;65745;50.278;18.192;2023-04-24T06:36:40;98635.00;;;14.32;65.49
76794;BME280;65745;50.278;18.192;2023-04-24T06:39:12;98635.91;;;14.42;65.12
76794;BME280;65745;50.278;18.192;2023-04-24T06:41:44;98630.55;;;14.52;64.55
76794;BME280;65745;50.278;18.192;2023-04-24T06:44:22;98624.20;;;14.68;64.42
76794;BME280;65745;50.278;18.192;2023-04-24T06:46:54;98623.27;;;14.82;64.00
76794;BME280;65745;50.278;18.192;2023-04-24T06:49:26;98621.67;;;14.94;63.29
76794;BME280;65745;50.278;18.192;2023-04-24T06:51:58;98620.40;;;15.06;62.60
76794;BME280;65745;50.278;18.192;2023-04-24T06:54:30;98617.00;;;15.21;62.97
76794;BME280;65745;50.278;18.192;2023-04-24T06:57:03;98620.73;;;15.34;62.90
76794;BME280;65745;50.278;18.192;2023-04-24T06:59:35;98625.66;;;15.47;61.98
76794;BME280;65745;50.278;18.192;2023-04-24T07:02:07;98624.82;;;15.57;61.68
76794;BME280;65745;50.278;18.192;2023-04-24T07:04:40;98619.08;;;15.65;61.54
76794;BME280;65745;50.278;18.192;2023-04-24T07:07:13;98619.91;;;15.75;61.33
76794;BME280;65745;50.278;18.192;2023-04-24T07:09:46;98623.20;;;15.84;60.74
76794;BME280;65745;50.278;18.192;2023-04-24T07:12:19;98623.52;;;15.93;60.36
76794;BME280;65745;50.278;18.192;2023-04-24T07:14:53;98615.30;;;16.03;59.94
76794;BME280;65745;50.278;18.192;2023-04-24T07:17:25;98614.06;;;16.19;60.25
76794;BME280;65745;50.278;18.192;2023-04-24T07:19:57;98614.08;;;16.33;59.69
76794;BME280;65745;50.278;18.192;2023-04-24T07:22:30;98613.96;;;16.45;59.53
76794;BME280;65745;50.278;18.192;2023-04-24T07:25:02;98612.35;;;16.53;58.80
76794;BME280;65745;50.278;18.192;2023-04-24T07:27:34;98615.27;;;16.64;58.62
76794;BME280;65745;50.278;18.192;2023-04-24T07:30:09;98612.41;;;16.73;56.73
76794;BME280;65745;50.278;18.192;2023-04-24T07:32:41;98615.77;;;16.84;57.60
76794;BME280;65745;50.278;18.192;2023-04-24T07:35:14;98612.84;;;16.90;56.94
76794;BME280;65745;50.278;18.192;2023-04-24T07:37:46;98610.13;;;17.01;57.33
76794;BME280;65745;50.278;18.192;2023-04-24T07:40:18;98610.83;;;17.07;56.23
76794;BME280;65745;50.278;18.192;2023-04-24T07:42:50;98613.58;;;17.08;55.77
76794;BME280;65745;50.278;18.192;2023-04-24T07:45:22;98612.94;;;17.12;56.04
76794;BME280;65745;50.278;18.192;2023-04-24T07:47:57;98618.05;;;17.22;55.14
76794;BME280;65745;50.278;18.192;2023-04-24T07:50:29;98618.93;;;17.34;56.05
76794;BME280;65745;50.278;18.192;2023-04-24T07:53:01;98616.83;;;17.48;55.81
76794;BME280;65745;50.278;18.192;2023-04-24T07:55:34;98617.23;;;17.57;54.37
76794;BME280;65745;50.278;18.192;2023-04-24T07:58:06;98617.37;;;17.59;53.85
76794;BME280;65745;50.278;18.192;2023-04-24T08:00:38;98619.09;;;17.66;54.92
76794;BME280;65745;50.278;18.192;2023-04-24T08:03:10;98615.36;;;17.75;53.40
76794;BME280;65745;50.278;18.192;2023-04-24T08:05:43;98615.10;;;17.83;53.76
76794;BME280;65745;50.278;18.192;2023-04-24T08:08:15;98615.37;;;17.97;53.62
76794;BME280;65745;50.278;18.192;2023-04-24T08:10:48;98612.50;;;18.06;52.84
76794;BME280;65745;50.278;18.192;2023-04-24T08:13:21;98615.30;;;18.11;52.45
76794;BME280;65745;50.278;18.192;2023-04-24T08:15:53;98614.91;;;18.23;52.81
76794;BME280;65745;50.278;18.192;2023-04-24T08:18:25;98615.52;;;18.31;51.55
76794;BME280;65745;50.278;18.192;2023-04-24T08:20:57;98611.48;;;18.38;51.04
76794;BME280;65745;50.278;18.192;2023-04-24T08:23:32;98615.20;;;18.41;49.21
76794;BME280;65745;50.278;18.192;2023-04-24T08:26:04;98611.52;;;18.42;48.11
76794;BME280;65745;50.278;18.192;2023-04-24T08:28:38;98609.05;;;18.43;49.13
76794;BME280;65745;50.278;18.192;2023-04-24T08:31:10;98608.13;;;18.44;49.53
76794;BME280;65745;50.278;18.192;2023-04-24T08:33:42;98604.50;;;18.48;49.63
76794;BME280;65745;50.278;18.192;2023-04-24T08:36:16;98606.70;;;18.56;49.26
76794;BME280;65745;50.278;18.192;2023-04-24T08:38:48;98609.59;;;18.64;49.27
76794;BME280;65745;50.278;18.192;2023-04-24T08:41:21;98611.31;;;18.70;49.46
76794;BME280;65745;50.278;18.192;2023-04-24T08:43:53;98610.56;;;18.77;49.03
76794;BME280;65745;50.278;18.192;2023-04-24T08:46:29;98608.52;;;18.71;47.84
76794;BME280;65745;50.278;18.192;2023-04-24T08:49:02;98611.52;;;18.74;49.48
76794;BME280;65745;50.278;18.192;2023-04-24T08:51:34;98610.54;;;18.82;48.13
76794;BME280;65745;50.278;18.192;2023-04-24T08:54:08;98605.54;;;18.91;47.68
76794;BME280;65745;50.278;18.192;2023-04-24T08:56:41;98602.41;;;18.96;48.17
76794;BME280;65745;50.278;18.192;2023-04-24T08:59:15;98602.35;;;19.07;47.66
76794;BME280;65745;50.278;18.192;2023-04-24T09:01:49;98604.52;;;19.15;46.85
76794;BME280;65745;50.278;18.192;2023-04-24T09:04:23;98606.64;;;19.24;46.55
76794;BME280;65745;50.278;18.192;2023-04-24T09:06:58;98603.80;;;19.39;47.12
76794;BME280;65745;50.278;18.192;2023-04-24T09:09:31;98601.05;;;19.43;45.68
76794;BME280;65745;50.278;18.192;2023-04-24T09:12:05;98601.30;;;19.41;46.03
76794;BME280;65745;50.278;18.192;2023-04-24T09:14:37;98605.67;;;19.41;45.57
76794;BME280;65745;50.278;18.192;2023-04-24T09:17:13;98605.90;;;19.44;46.38
76794;BME280;65745;50.278;18.192;2023-04-24T09:19:45;98602.58;;;19.55;46.60
76794;BME280;65745;50.278;18.192;2023-04-24T09:22:18;98601.83;;;19.79;47.19
76794;BME280;65745;50.278;18.192;2023-04-24T09:25:01;98601.17;;;19.96;46.44
76794;BME280;65745;50.278;18.192;2023-04-24T09:27:34;98604.00;;;20.00;46.10
76794;BME280;65745;50.278;18.192;2023-04-24T09:30:08;98602.61;;;19.94;45.39
76794;BME280;65745;50.278;18.192;2023-04-24T09:32:40;98603.42;;;19.87;45.73
76794;BME280;65745;50.278;18.192;2023-04-24T09:35:14;98600.24;;;19.84;45.08
76794;BME280;65745;50.278;18.192;2023-04-24T09:37:48;98593.81;;;19.92;46.63
76794;BME280;65745;50.278;18.192;2023-04-24T09:40:22;98595.43;;;20.04;46.43
76794;BME280;65745;50.278;18.192;2023-04-24T09:42:56;98593.99;;;20.10;46.43
76794;BME280;65745;50.278;18.192;2023-04-24T09:45:34;98587.86;;;20.01;45.65
76794;BME280;65745;50.278;18.192;2023-04-24T09:48:10;98585.69;;;19.89;44.16
76794;BME280;65745;50.278;18.192;2023-04-24T09:50:47;98580.00;;;19.92;44.82
76794;BME280;65745;50.278;18.192;2023-04-24T09:53:25;98583.65;;;20.06;45.25
76794;BME280;65745;50.278;18.192;2023-04-24T09:55:58;98583.26;;;20.11;45.36
76794;BME280;65745;50.278;18.192;2023-04-24T09:58:34;98580.70;;;20.14;46.22
76794;BME280;65745;50.278;18.192;2023-04-24T10:01:06;98577.14;;;20.34;46.46
76794;BME280;65745;50.278;18.192;2023-04-24T10:03:38;98572.03;;;20.51;46.08
76794;BME280;65745;50.278;18.192;2023-04-24T10:06:12;98574.22;;;20.70;46.03
76794;BME280;65745;50.278;18.192;2023-04-24T10:08:46;98570.44;;;20.59;44.94
76794;BME280;65745;50.278;18.192;2023-04-24T10:11:21;98566.64;;;20.79;46.26
76794;BME280;65745;50.278;18.192;2023-04-24T10:13:54;98563.84;;;21.16;45.81
76794;BME280;65745;50.278;18.192;2023-04-24T10:16:28;98564.41;;;21.42;45.33
76794;BME280;65745;50.278;18.192;2023-04-24T10:19:01;98563.41;;;21.25;44.99
76794;BME280;65745;50.278;18.192;2023-04-24T10:21:35;98566.84;;;21.03;45.25
76794;BME280;65745;50.278;18.192;2023-04-24T10:24:09;98564.00;;;20.80;44.37
76794;BME280;65745;50.278;18.192;2023-04-24T10:26:44;98568.05;;;20.67;44.77
76794;BME280;65745;50.278;18.192;2023-04-24T10:29:19;98574.05;;;20.44;44.96
76794;BME280;65745;50.278;18.192;2023-04-24T10:31:53;98581.61;;;20.13;45.41
76794;BME280;65745;50.278;18.192;2023-04-24T10:34:26;98578.64;;;19.73;45.20
76794;BME280;65745;50.278;18.192;2023-04-24T10:36:58;98588.11;;;19.49;45.92
76794;BME280;65745;50.278;18.192;2023-04-24T10:39:31;98589.35;;;19.14;46.46
76794;BME280;65745;50.278;18.192;2023-04-24T10:42:15;98590.31;;;18.92;47.08
76794;BME280;65745;50.278;18.192;2023-04-24T10:44:50;98590.58;;;18.75;48.03
76794;BME280;65745;50.278;18.192;2023-04-24T10:47:22;98588.92;;;18.61;48.28
76794;BME280;65745;50.278;18.192;2023-04-24T10:49:54;98584.54;;;18.51;47.98
76794;BME280;65745;50.278;18.192;2023-04-24T10:52:47;98579.80;;;18.37;47.87
76794;BME280;65745;50.278;18.192;2023-04-24T10:55:40;98575.31;;;18.29;47.28
76794;BME280;65745;50.278;18.192;2023-04-24T10:58:13;98571.79;;;18.25;46.90
76794;BME280;65745;50.278;18.192;2023-04-24T11:00:57;98570.61;;;18.23;46.82
76794;BME280;65745;50.278;18.192;2023-04-24T11:03:31;98570.81;;;18.18;46.55
76794;BME280;65745;50.278;18.192;2023-04-24T11:06:06;98574.70;;;18.11;46.65
76794;BME280;65745;50.278;18.192;2023-04-24T11:08:44;98575.91;;;18.10;46.96
76794;BME280;65745;50.278;18.192;2023-04-24T11:11:17;98573.85;;;18.09;47.17
76794;BME280;65745;50.278;18.192;2023-04-24T11:14:06;98573.62;;;18.06;47.07
76794;BME280;65745;50.278;18.192;2023-04-24T11:16:44;98578.11;;;18.02;47.31
76794;BME280;65745;50.278;18.192;2023-04-24T11:19:27;98577.61;;;17.90;47.52
76794;BME280;65745;50.278;18.192;2023-04-24T11:22:02;98576.48;;;17.76;48.29
76794;BME280;65745;50.278;18.192;2023-04-24T11:24:39;98575.73;;;17.66;49.30
76794;BME280;65745;50.278;18.192;2023-04-24T11:27:17;98580.34;;;17.63;49.24
76794;BME280;65745;50.278;18.192;2023-04-24T11:30:01;98583.81;;;17.57;49.66
76794;BME280;65745;50.278;18.192;2023-04-24T11:32:37;98581.58;;;17.50;50.26
76794;BME280;65745;50.278;18.192;2023-04-24T11:35:15;98587.48;;;17.45;51.33
76794;BME280;65745;50.278;18.192;2023-04-24T11:37:49;98589.17;;;17.34;51.35
76794;BME280;65745;50.278;18.192;2023-04-24T11:40:25;98581.89;;;17.27;51.06
76794;BME280;65745;50.278;18.192;2023-04-24T11:42:59;98584.55;;;17.13;53.24
76794;BME280;65745;50.278;18.192;2023-04-24T11:45:32;98582.88;;;17.04;55.95
76794;BME280;65745;50.278;18.192;2023-04-24T11:48:05;98581.80;;;16.99;56.22
76794;BME280;65745;50.278;18.192;2023-04-24T11:50:37;98581.31;;;16.98;56.23
76794;BME280;65745;50.278;18.192;2023-04-24T11:53:09;98586.91;;;16.97;55.74
76794;BME280;65745;50.278;18.192;2023-04-24T11:55:42;98579.19;;;16.93;56.87
76794;BME280;65745;50.278;18.192;2023-04-24T11:58:14;98580.23;;;16.93;57.04
76794;BME280;65745;50.278;18.192;2023-04-24T12:00:55;98578.67;;;16.93;56.79
76794;BME280;65745;50.278;18.192;2023-04-24T12:03:27;98580.38;;;16.87;57.23
76794;BME280;65745;50.278;18.192;2023-04-24T12:06:08;98576.71;;;16.81;56.95
76794;BME280;65745;50.278;18.192;2023-04-24T12:08:41;98581.14;;;16.78;56.86
76794;BME280;65745;50.278;18.192;2023-04-24T12:11:16;98582.97;;;16.68;57.20
76794;BME280;65745;50.278;18.192;2023-04-24T12:13:49;98585.81;;;16.59;56.98
76794;BME280;65745;50.278;18.192;2023-04-24T12:16:22;98585.33;;;16.49;56.80
76794;BME280;65745;50.278;18.192;2023-04-24T12:18:54;98584.75;;;16.44;57.05
76794;BME280;65745;50.278;18.192;2023-04-24T12:21:31;98590.21;;;16.42;57.55
76794;BME280;65745;50.278;18.192;2023-04-24T12:24:07;98583.77;;;16.42;57.11
76794;BME280;65745;50.278;18.192;2023-04-24T12:26:44;98582.15;;;16.44;58.46
76794;BME280;65745;50.278;18.192;2023-04-24T12:29:22;98578.33;;;16.44;59.23
76794;BME280;65745;50.278;18.192;2023-04-24T12:31:55;98578.94;;;16.48;58.64
76794;BME280;65745;50.278;18.192;2023-04-24T12:34:27;98579.10;;;16.48;58.58
76794;BME280;65745;50.278;18.192;2023-04-24T12:37:11;98579.05;;;16.44;59.28
76794;BME280;65745;50.278;18.192;2023-04-24T12:39:59;98576.52;;;16.47;59.24
76794;BME280;65745;50.278;18.192;2023-04-24T12:42:32;98577.20;;;16.55;59.05
76794;BME280;65745;50.278;18.192;2023-04-24T12:45:06;98574.83;;;16.60;57.85
76794;BME280;65745;50.278;18.192;2023-04-24T12:47:39;98576.27;;;16.65;57.84
76794;BME280;65745;50.278;18.192;2023-04-24T12:50:13;98576.30;;;16.70;57.45
76794;BME280;65745;50.278;18.192;2023-04-24T12:52:46;98574.55;;;16.71;57.72
76794;BME280;65745;50.278;18.192;2023-04-24T12:55:18;98577.94;;;16.75;57.61
76794;BME280;65745;50.278;18.192;2023-04-24T12:57:51;98580.08;;;16.79;57.10
76794;BME280;65745;50.278;18.192;2023-04-24T13:00:26;98578.75;;;16.77;57.56
76794;BME280;65745;50.278;18.192;2023-04-24T13:02:58;98578.78;;;16.75;58.14
76794;BME280;65745;50.278;18.192;2023-04-24T13:05:31;98579.13;;;16.76;58.05
76794;BME280;65745;50.278;18.192;2023-04-24T13:08:04;98576.76;;;16.80;57.78
76794;BME280;65745;50.278;18.192;2023-04-24T13:10:37;98579.98;;;16.76;57.90
76794;BME280;65745;50.278;18.192;2023-04-24T13:13:10;98575.02;;;16.67;58.13
76794;BME280;65745;50.278;18.192;2023-04-24T13:15:42;98573.85;;;16.57;59.01
76794;BME280;65745;50.278;18.192;2023-04-24T13:18:15;98567.26;;;16.49;59.71
76794;BME280;65745;50.278;18.192;2023-04-24T13:20:47;98568.13;;;16.43;59.72
76794;BME280;65745;50.278;18.192;2023-04-24T13:23:19;98569.80;;;16.38;59.57
76794;BME280;65745;50.278;18.192;2023-04-24T13:25:53;98566.81;;;16.33;59.66